sensor_id;sensor_type;location;lat;lon;timestamp;P1;durP1;ratioP1;P2;durP2;ratioP2
62010;SDS011;47967;51.756;10.174;2023-06-26T04:03:13;0.00;;;0.00;;
62010;SDS011;47967;51.756;10.174;2023-06-26T04:07:16;0.00;;;0.00;;
62010;SDS011;47967;51.756;10.174;2023-06-26T04:11:19;0.00;;;0.00;;
62010;SDS011;47967;51.756;10.174;2023-06-26T04:15:22;0.00;;;0.00;;
62010;SDS011;47967;51.756;10.174;2023-06-26T04:19:26;0.00;;;0.00;;
62010;SDS011;47967;51.756;10.174;2023-06-26T04:23:28;0.00;;;0.00;;
62010;SDS011;47967;51.756;10.174;2023-06-26T04:27:32;0.00;;;0.00;;
62010;SDS011;47967;51.756;10.174;2023-06-26T04:31:37;0.00;;;0.00;;
62010;SDS011;47967;51.756;10.174;2023-06-26T04:35:42;0.08;;;0.08;;
62010;SDS011;47967;51.756;10.174;2023-06-26T04:39:45;0.13;;;0.13;;
62010;SDS011;47967;51.756;10.174;2023-06-26T04:43:48;0.00;;;0.00;;
62010;SDS011;47967;51.756;10.174;2023-06-26T04:47:51;0.00;;;0.00;;
62010;SDS011;47967;51.756;10.174;2023-06-26T04:51:55;0.00;;;0.00;;
62010;SDS011;47967;51.756;10.174;2023-06-26T04:55:57;0.00;;;0.00;;
62010;SDS011;47967;51.756;10.174;2023-06-26T05:00:00;0.00;;;0.00;;
62010;SDS011;47967;51.756;10.174;2023-06-26T05:04:03;0.00;;;0.00;;
62010;SDS011;47967;51.756;10.174;2023-06-26T05:08:17;0.00;;;0.00;;
62010;SDS011;47967;51.756;10.174;2023-06-26T05:12:20;0.00;;;0.00;;
62010;SDS011;47967;51.756;10.174;2023-06-26T05:16:23;0.10;;;0.10;;
62010;SDS011;47967;51.756;10.174;2023-06-26T05:20:25;0.10;;;0.08;;
62010;SDS011;47967;51.756;10.174;2023-06-26T05:24:29;0.00;;;0.00;;
62010;SDS011;47967;51.756;10.174;2023-06-26T05:28:32;0.00;;;0.00;;
62010;SDS011;47967;51.756;10.174;2023-06-26T05:32:38;0.00;;;0.00;;
62010;SDS011;47967;51.756;10.174;2023-06-26T05:36:42;0.00;;;0.00;;
62010;SDS011;47967;51.756;10.174;2023-06-26T05:40:47;0.00;;;0.00;;
62010;SDS011;47967;51.756;10.174;2023-06-26T05:44:50;0.00;;;0.00;;
62010;SDS011;47967;51.756;10.174;2023-06-26T05:48:52;0.00;;;0.00;;
62010;SDS011;47967;51.756;10.174;2023-06-26T05:52:55;0.00;;;0.00;;
62010;SDS011;47967;51.756;10.174;2023-06-26T05:57:00;0.60;;;0.15;;
62010;SDS011;47967;51.756;10.174;2023-06-26T06:01:03;0.00;;;0.00;;
62010;SDS011;47967;51.756;10.174;2023-06-26T06:05:06;0.00;;;0.00;;
62010;SDS011;47967;51.756;10.174;2023-06-26T06:13:12;0.00;;;0.00;;
62010;SDS011;47967;51.756;10.174;2023-06-26T06:17:15;0.00;;;0.00;;
62010;SDS011;47967;51.756;10.174;2023-06-26T06:21:17;0.00;;;0.00;;
62010;SDS011;47967;51.756;10.174;2023-06-26T06:25:20;0.00;;;0.00;;
62010;SDS011;47967;51.756;10.174;2023-06-26T06:29:24;0.00;;;0.00;;
62010;SDS011;47967;51.756;10.174;2023-06-26T06:33:26;0.00;;;0.00;;
62010;SDS011;47967;51.756;10.174;2023-06-26T06:37:29;0.00;;;0.00;;
62010;SDS011;47967;51.756;10.174;2023-06-26T06:41:33;0.00;;;0.00;;
62010;SDS011;47967;51.756;10.174;2023-06-26T06:45:41;0.00;;;0.00;;
62010;SDS011;47967;51.756;10.174;2023-06-26T06:49:43;0.03;;;0.03;;
62010;SDS011;47967;51.756;10.174;2023-06-26T06:53:46;0.00;;;0.00;;
62010;SDS011;47967;51.756;10.174;2023-06-26T06:57:49;0.00;;;0.00;;
62010;SDS011;47967;51.756;10.174;2023-06-26T07:01:53;0.00;;;0.00;;
62010;SDS011;47967;51.756;10.174;2023-06-26T07:05:56;0.10;;;0.10;;
62010;SDS011;47967;51.756;10.174;2023-06-26T07:09:58;0.00;;;0.00;;
62010;SDS011;47967;51.756;10.174;2023-06-26T07:18:05;0.00;;;0.00;;
62010;SDS011;47967;51.756;10.174;2023-06-26T07:22:08;0.15;;;0.15;;
62010;SDS011;47967;51.756;10.174;2023-06-26T07:26:13;0.10;;;0.10;;
62010;SDS011;47967;51.756;10.174;2023-06-26T07:30:16;0.00;;;0.00;;
62010;SDS011;47967;51.756;10.174;2023-06-26T07:34:20;0.00;;;0.00;;
62010;SDS011;47967;51.756;10.174;2023-06-26T07:38:23;0.00;;;0.00;;
62010;SDS011;47967;51.756;10.174;2023-06-26T07:42:25;0.05;;;0.05;;
62010;SDS011;47967;51.756;10.174;2023-06-26T07:50:32;0.00;;;0.00;;
62010;SDS011;47967;51.756;10.174;2023-06-26T07:54:34;0.55;;;0.20;;
62010;SDS011;47967;51.756;10.174;2023-06-26T07:58:37;0.05;;;0.05;;
62010;SDS011;47967;51.756;10.174;2023-06-26T08:06:47;0.00;;;0.00;;
62010;SDS011;47967;51.756;10.174;2023-06-26T08:10:50;0.00;;;0.00;;
62010;SDS011;47967;51.756;10.174;2023-06-26T08:14:53;0.20;;;0.20;;
62010;SDS011;47967;51.756;10.174;2023-06-26T08:22:59;0.00;;;0.00;;
62010;SDS011;47967;51.756;10.174;2023-06-26T08:27:02;0.22;;;0.10;;
62010;SDS011;47967;51.756;10.174;2023-06-26T08:31:05;0.00;;;0.00;;
62010;SDS011;47967;51.756;10.174;2023-06-26T08:35:08;0.00;;;0.00;;
62010;SDS011;47967;51.756;10.174;2023-06-26T08:39:13;0.00;;;0.00;;
62010;SDS011;47967;51.756;10.174;2023-06-26T08:43:15;0.00;;;0.00;;
62010;SDS011;47967;51.756;10.174;2023-06-26T08:47:18;0.00;;;0.00;;
62010;SDS011;47967;51.756;10.174;2023-06-26T08:51:24;0.00;;;0.00;;
62010;SDS011;47967;51.756;10.174;2023-06-26T08:55:29;0.00;;;0.00;;
62010;SDS011;47967;51.756;10.174;2023-06-26T08:59:33;0.00;;;0.00;;
62010;SDS011;47967;51.756;10.174;2023-06-26T09:03:36;0.00;;;0.00;;
62010;SDS011;47967;51.756;10.174;2023-06-26T09:07:39;0.00;;;0.00;;
62010;SDS011;47967;51.756;10.174;2023-06-26T09:11:43;0.10;;;0.10;;
62010;SDS011;47967;51.756;10.174;2023-06-26T09:15:46;0.45;;;0.17;;
62010;SDS011;47967;51.756;10.174;2023-06-26T09:19:49;0.25;;;0.10;;
62010;SDS011;47967;51.756;10.174;2023-06-26T09:23:52;0.05;;;0.05;;
62010;SDS011;47967;51.756;10.174;2023-06-26T09:27:56;0.20;;;0.20;;
62010;SDS011;47967;51.756;10.174;2023-06-26T09:31:59;0.00;;;0.00;;
62010;SDS011;47967;51.756;10.174;2023-06-26T09:36:03;0.25;;;0.13;;
62010;SDS011;47967;51.756;10.174;2023-06-26T09:40:07;0.57;;;0.38;;
62010;SDS011;47967;51.756;10.174;2023-06-26T09:44:13;0.00;;;0.00;;
62010;SDS011;47967;51.756;10.174;2023-06-26T09:48:16;3.17;;;0.13;;
62010;SDS011;47967;51.756;10.174;2023-06-26T09:52:19;0.30;;;0.30;;
62010;SDS011;47967;51.756;10.174;2023-06-26T09:56:22;0.20;;;0.20;;
62010;SDS011;47967;51.756;10.174;2023-06-26T10:00:26;0.20;;;0.20;;
62010;SDS011;47967;51.756;10.174;2023-06-26T10:04:28;0.20;;;0.20;;
62010;SDS011;47967;51.756;10.174;2023-06-26T10:08:31;0.20;;;0.20;;
62010;SDS011;47967;51.756;10.174;2023-06-26T10:12:36;0.00;;;0.00;;
62010;SDS011;47967;51.756;10.174;2023-06-26T10:16:40;0.30;;;0.30;;
62010;SDS011;47967;51.756;10.174;2023-06-26T10:20:45;1.25;;;0.28;;
62010;SDS011;47967;51.756;10.174;2023-06-26T10:24:50;0.38;;;0.22;;
62010;SDS011;47967;51.756;10.174;2023-06-26T10:28:54;0.38;;;0.38;;
62010;SDS011;47967;51.756;10.174;2023-06-26T10:33:00;0.25;;;0.25;;
62010;SDS011;47967;51.756;10.174;2023-06-26T10:37:04;0.15;;;0.10;;
62010;SDS011;47967;51.756;10.174;2023-06-26T10:41:09;0.40;;;0.40;;
62010;SDS011;47967;51.756;10.174;2023-06-26T10:45:13;0.30;;;0.30;;
62010;SDS011;47967;51.756;10.174;2023-06-26T10:49:18;0.75;;;0.75;;
62010;SDS011;47967;51.756;10.174;2023-06-26T10:53:22;0.47;;;0.47;;
62010;SDS011;47967;51.756;10.174;2023-06-26T10:57:28;0.40;;;0.40;;
62010;SDS011;47967;51.756;10.174;2023-06-26T11:01:30;0.35;;;0.35;;
62010;SDS011;47967;51.756;10.174;2023-06-26T11:05:44;0.30;;;0.30;;
62010;SDS011;47967;51.756;10.174;2023-06-26T11:09:56;0.20;;;0.20;;
62010;SDS011;47967;51.756;10.174;2023-06-26T11:13:59;0.57;;;0.57;;
62010;SDS011;47967;51.756;10.174;2023-06-26T11:18:04;0.50;;;0.50;;
62010;SDS011;47967;51.756;10.174;2023-06-26T11:22:08;1.17;;;0.63;;
62010;SDS011;47967;51.756;10.174;2023-06-26T11:26:12;1.40;;;0.73;;
62010;SDS011;47967;51.756;10.174;2023-06-26T11:30:22;2.05;;;0.63;;
62010;SDS011;47967;51.756;10.174;2023-06-26T11:34:28;0.28;;;0.28;;
62010;SDS011;47967;51.756;10.174;2023-06-26T11:38:37;0.60;;;0.60;;
62010;SDS011;47967;51.756;10.174;2023-06-26T11:42:40;0.70;;;0.43;;
62010;SDS011;47967;51.756;10.174;2023-06-26T11:50:45;0.50;;;0.35;;
62010;SDS011;47967;51.756;10.174;2023-06-26T11:54:49;0.10;;;0.10;;
62010;SDS011;47967;51.756;10.174;2023-06-26T11:58:55;0.13;;;0.13;;
62010;SDS011;47967;51.756;10.174;2023-06-26T12:02:58;0.20;;;0.20;;
62010;SDS011;47967;51.756;10.174;2023-06-26T12:07:01;0.38;;;0.38;;
62010;SDS011;47967;51.756;10.174;2023-06-26T12:11:09;0.55;;;0.55;;
62010;SDS011;47967;51.756;10.174;2023-06-26T12:15:13;0.35;;;0.35;;
62010;SDS011;47967;51.756;10.174;2023-06-26T12:19:17;0.47;;;0.47;;
62010;SDS011;47967;51.756;10.174;2023-06-26T12:27:23;0.30;;;0.30;;
62010;SDS011;47967;51.756;10.174;2023-06-26T12:31:26;0.30;;;0.30;;
62010;SDS011;47967;51.756;10.174;2023-06-26T12:39:44;0.10;;;0.10;;
62010;SDS011;47967;51.756;10.174;2023-06-26T12:43:49;0.20;;;0.20;;
62010;SDS011;47967;51.756;10.174;2023-06-26T12:48:06;0.10;;;0.10;;
62010;SDS011;47967;51.756;10.174;2023-06-26T12:52:09;0.10;;;0.10;;
62010;SDS011;47967;51.756;10.174;2023-06-26T12:56:13;0.10;;;0.10;;
62010;SDS011;47967;51.756;10.174;2023-06-26T13:00:19;0.20;;;0.20;;
62010;SDS011;47967;51.756;10.174;2023-06-26T13:04:22;0.25;;;0.25;;
62010;SDS011;47967;51.756;10.174;2023-06-26T13:08:24;0.40;;;0.40;;
62010;SDS011;47967;51.756;10.174;2023-06-26T13:16:31;0.28;;;0.28;;
62010;SDS011;47967;51.756;10.174;2023-06-26T13:20:33;0.30;;;0.30;;
62010;SDS011;47967;51.756;10.174;2023-06-26T13:24:37;0.35;;;0.35;;
62010;SDS011;47967;51.756;10.174;2023-06-26T13:28:40;0.22;;;0.20;;
62010;SDS011;47967;51.756;10.174;2023-06-26T13:36:47;0.43;;;0.43;;
62010;SDS011;47967;51.756;10.174;2023-06-26T13:49:07;0.20;;;0.20;;
62010;SDS011;47967;51.756;10.174;2023-06-26T13:53:10;0.32;;;0.30;;
62010;SDS011;47967;51.756;10.174;2023-06-26T13:57:12;0.32;;;0.32;;
62010;SDS011;47967;51.756;10.174;2023-06-26T14:01:15;0.65;;;0.60;;
62010;SDS011;47967;51.756;10.174;2023-06-26T14:05:19;0.28;;;0.28;;
62010;SDS011;47967;51.756;10.174;2023-06-26T14:09:34;0.28;;;0.28;;
62010;SDS011;47967;51.756;10.174;2023-06-26T14:17:39;0.57;;;0.57;;
62010;SDS011;47967;51.756;10.174;2023-06-26T14:21:44;0.17;;;0.17;;
62010;SDS011;47967;51.756;10.174;2023-06-26T14:25:46;0.17;;;0.17;;
62010;SDS011;47967;51.756;10.174;2023-06-26T14:29:50;0.20;;;0.20;;
62010;SDS011;47967;51.756;10.174;2023-06-26T14:37:56;0.77;;;0.40;;
62010;SDS011;47967;51.756;10.174;2023-06-26T14:41:59;0.32;;;0.28;;
62010;SDS011;47967;51.756;10.174;2023-06-26T14:46:02;0.30;;;0.30;;
62010;SDS011;47967;51.756;10.174;2023-06-26T14:50:05;0.20;;;0.17;;
62010;SDS011;47967;51.756;10.174;2023-06-26T14:54:11;0.10;;;0.10;;
62010;SDS011;47967;51.756;10.174;2023-06-26T14:58:14;0.55;;;0.43;;
62010;SDS011;47967;51.756;10.174;2023-06-26T15:02:16;0.20;;;0.20;;
62010;SDS011;47967;51.756;10.174;2023-06-26T15:10:23;0.17;;;0.17;;
62010;SDS011;47967;51.756;10.174;2023-06-26T15:14:29;0.20;;;0.20;;
62010;SDS011;47967;51.756;10.174;2023-06-26T15:22:34;0.00;;;0.00;;
62010;SDS011;47967;51.756;10.174;2023-06-26T15:30:40;1.75;;;0.68;;
62010;SDS011;47967;51.756;10.174;2023-06-26T15:34:43;0.10;;;0.10;;
62010;SDS011;47967;51.756;10.174;2023-06-26T15:38:45;0.20;;;0.20;;
62010;SDS011;47967;51.756;10.174;2023-06-26T15:46:53;0.47;;;0.10;;
62010;SDS011;47967;51.756;10.174;2023-06-26T15:54:58;0.00;;;0.00;;
62010;SDS011;47967;51.756;10.174;2023-06-26T16:03:05;0.20;;;0.13;;
62010;SDS011;47967;51.756;10.174;2023-06-26T16:07:07;0.00;;;0.00;;
62010;SDS011;47967;51.756;10.174;2023-06-26T16:15:14;0.00;;;0.00;;
62010;SDS011;47967;51.756;10.174;2023-06-26T16:19:16;0.57;;;0.13;;
62010;SDS011;47967;51.756;10.174;2023-06-26T16:27:23;0.00;;;0.00;;
62010;SDS011;47967;51.756;10.174;2023-06-26T16:31:27;0.05;;;0.05;;
62010;SDS011;47967;51.756;10.174;2023-06-26T16:35:30;0.10;;;0.10;;
62010;SDS011;47967;51.756;10.174;2023-06-26T16:39:35;0.25;;;0.25;;
62010;SDS011;47967;51.756;10.174;2023-06-26T16:43:38;0.35;;;0.30;;
62010;SDS011;47967;51.756;10.174;2023-06-26T16:47:42;0.65;;;0.30;;
62010;SDS011;47967;51.756;10.174;2023-06-26T16:51:44;0.30;;;0.30;;
62010;SDS011;47967;51.756;10.174;2023-06-26T16:55:47;0.10;;;0.10;;
62010;SDS011;47967;51.756;10.174;2023-06-26T16:59:50;0.22;;;0.22;;
62010;SDS011;47967;51.756;10.174;2023-06-26T17:03:54;0.10;;;0.10;;
62010;SDS011;47967;51.756;10.174;2023-06-26T17:07:56;0.00;;;0.00;;
62010;SDS011;47967;51.756;10.174;2023-06-26T17:11:59;0.30;;;0.30;;
62010;SDS011;47967;51.756;10.174;2023-06-26T17:16:02;0.00;;;0.00;;
62010;SDS011;47967;51.756;10.174;2023-06-26T17:24:10;0.30;;;0.30;;
62010;SDS011;47967;51.756;10.174;2023-06-26T17:28:13;0.10;;;0.10;;
62010;SDS011;47967;51.756;10.174;2023-06-26T17:32:15;0.25;;;0.25;;
62010;SDS011;47967;51.756;10.174;2023-06-26T17:36:24;5.95;;;0.30;;
62010;SDS011;47967;51.756;10.174;2023-06-26T17:40:26;0.20;;;0.20;;
62010;SDS011;47967;51.756;10.174;2023-06-26T17:44:29;0.00;;;0.00;;
62010;SDS011;47967;51.756;10.174;2023-06-26T17:48:32;0.25;;;0.22;;
62010;SDS011;47967;51.756;10.174;2023-06-26T17:52:36;0.00;;;0.00;;
62010;SDS011;47967;51.756;10.174;2023-06-26T17:56:38;0.10;;;0.10;;
62010;SDS011;47967;51.756;10.174;2023-06-26T18:00:41;0.22;;;0.22;;
62010;SDS011;47967;51.756;10.174;2023-06-26T18:04:44;0.10;;;0.10;;
62010;SDS011;47967;51.756;10.174;2023-06-26T18:08:48;0.05;;;0.05;;
62010;SDS011;47967;51.756;10.174;2023-06-26T18:12:50;0.10;;;0.10;;
62010;SDS011;47967;51.756;10.174;2023-06-26T18:16:53;0.20;;;0.20;;
62010;SDS011;47967;51.756;10.174;2023-06-26T18:20:56;0.28;;;0.28;;
62010;SDS011;47967;51.756;10.174;2023-06-26T18:25:00;0.10;;;0.10;;
62010;SDS011;47967;51.756;10.174;2023-06-26T18:29:03;0.00;;;0.00;;
62010;SDS011;47967;51.756;10.174;2023-06-26T18:33:05;0.10;;;0.10;;
62010;SDS011;47967;51.756;10.174;2023-06-26T18:37:08;0.10;;;0.10;;
62010;SDS011;47967;51.756;10.174;2023-06-26T18:41:12;0.00;;;0.00;;
62010;SDS011;47967;51.756;10.174;2023-06-26T18:45:15;0.10;;;0.10;;
62010;SDS011;47967;51.756;10.174;2023-06-26T18:49:17;0.00;;;0.00;;
62010;SDS011;47967;51.756;10.174;2023-06-26T18:53:20;0.10;;;0.08;;
62010;SDS011;47967;51.756;10.174;2023-06-26T18:57:24;0.10;;;0.10;;
62010;SDS011;47967;51.756;10.174;2023-06-26T19:01:28;0.30;;;0.10;;
62010;SDS011;47967;51.756;10.174;2023-06-26T19:05:31;0.00;;;0.00;;
62010;SDS011;47967;51.756;10.174;2023-06-26T19:09:33;0.20;;;0.20;;
62010;SDS011;47967;51.756;10.174;2023-06-26T19:13:37;0.08;;;0.08;;
62010;SDS011;47967;51.756;10.174;2023-06-26T19:17:40;0.00;;;0.00;;
62010;SDS011;47967;51.756;10.174;2023-06-26T19:21:43;0.10;;;0.10;;
62010;SDS011;47967;51.756;10.174;2023-06-26T19:25:45;0.17;;;0.13;;
62010;SDS011;47967;51.756;10.174;2023-06-26T19:33:52;0.10;;;0.10;;
62010;SDS011;47967;51.756;10.174;2023-06-26T19:37:55;0.10;;;0.10;;
62010;SDS011;47967;51.756;10.174;2023-06-26T19:42:06;0.00;;;0.00;;
62010;SDS011;47967;51.756;10.174;2023-06-26T19:46:10;0.00;;;0.00;;
62010;SDS011;47967;51.756;10.174;2023-06-26T19:50:13;0.10;;;0.10;;
62010;SDS011;47967;51.756;10.174;2023-06-26T19:58:18;0.22;;;0.15;;
62010;SDS011;47967;51.756;10.174;2023-06-26T20:02:22;0.60;;;0.47;;
62010;SDS011;47967;51.756;10.174;2023-06-26T20:06:25;0.28;;;0.17;;
62010;SDS011;47967;51.756;10.174;2023-06-26T20:10:27;0.08;;;0.08;;
62010;SDS011;47967;51.756;10.174;2023-06-26T20:14:30;0.00;;;0.00;;
62010;SDS011;47967;51.756;10.174;2023-06-26T20:18:34;0.00;;;0.00;;
62010;SDS011;47967;51.756;10.174;2023-06-26T20:22:37;0.00;;;0.00;;
62010;SDS011;47967;51.756;10.174;2023-06-26T20:26:40;0.00;;;0.00;;
62010;SDS011;47967;51.756;10.174;2023-06-26T20:30:42;0.00;;;0.00;;
62010;SDS011;47967;51.756;10.174;2023-06-26T20:34:46;0.00;;;0.00;;
62010;SDS011;47967;51.756;10.174;2023-06-26T20:38:49;0.00;;;0.00;;
62010;SDS011;47967;51.756;10.174;2023-06-26T20:42:52;0.00;;;0.00;;
62010;SDS011;47967;51.756;10.174;2023-06-26T20:46:55;0.00;;;0.00;;
62010;SDS011;47967;51.756;10.174;2023-06-26T20:51:02;0.00;;;0.00;;
62010;SDS011;47967;51.756;10.174;2023-06-26T20:55:05;0.00;;;0.00;;
62010;SDS011;47967;51.756;10.174;2023-06-26T20:59:09;0.00;;;0.00;;
